This is the latest recevied weather packets stored in our database for station/object OE6CUD-6. If no packets are shown the sender has not sent any weather packets the latest 10 day(s).
| Time | Temp. | Humidity | Pressure | Rain* | Wind** | Luminosity | Snow |
|---|---|---|---|---|---|---|---|
| 1777550468 | 15.56° C | 38% | 1027 hPa | 0 mm | - | 796 W/m² | - |
| 1777548666 | 15.56° C | 38% | 1027.4 hPa | 0 mm | - | 816 W/m² | - |
| 1777548061 | 15.56° C | 38% | 1027.4 hPa | 0 mm | - | 823 W/m² | - |
| 1777546852 | 14.44° C | 38% | 1027.4 hPa | 0 mm | - | 828 W/m² | - |
| 1777546548 | 14.44° C | 40% | 1027.3 hPa | 0 mm | - | 826 W/m² | - |
| 1777546408 | 15° C | 40% | 1027.5 hPa | 0 mm | - | 819 W/m² | - |
| 1777545345 | 13.89° C | 37% | 1027.5 hPa | 0 mm | - | 654 W/m² | - |
| 1777544438 | 13.89° C | 40% | 1027.6 hPa | 0 mm | - | 756 W/m² | - |
| 1777543094 | 13.33° C | 42% | 1027.7 hPa | 0 mm | - | 805 W/m² | - |
| 1777542030 | 12.78° C | 39% | 1027.8 hPa | 0 mm | - | 788 W/m² | - |
| 1777538729 | 11.67° C | 42% | 1028 hPa | 0 mm | - | 707 W/m² | - |
| 1777536629 | 10.56° C | 42% | 1027.9 hPa | 0 mm | - | 613 W/m² | - |
| 1777536022 | 10° C | 43% | 1027.9 hPa | 0 mm | - | 538 W/m² | - |
| 1777535422 | 10° C | 43% | 1027.9 hPa | 0 mm | - | 473 W/m² | - |
| 1777533002 | 10° C | 48% | 1028 hPa | 0 mm | - | 46 W/m² | - |
| 1777532998 | 9.44° C | 45% | 1028 hPa | 0 mm | - | 457 W/m² | - |
| 1777531168 | 8.33° C | 50% | 1027.7 hPa | 0 mm | - | 339 W/m² | - |
| 1777530863 | 7.78° C | 51% | 1027.6 hPa | 0 mm | - | 118 W/m² | - |
| 1777529961 | 7.22° C | 52% | 1027.5 hPa | 0 mm | - | 32 W/m² | - |
| 1777529054 | 6.67° C | 56% | 1027.3 hPa | 0 mm | - | 30 W/m² | - |
| 1777526944 | 3.33° C | 74% | 1026.9 hPa | 0 mm | - | 25 W/m² | - |
| 1777526805 | 1.67° C | 83% | 1026.5 hPa | 0 mm | - | 25 W/m² | - |
| 1777524511 | 0° C | 84% | 1026 hPa | 0 mm | - | 69 W/m² | - |
| 1777519681 | 0.56° C | 76% | 1025.7 hPa | 0 mm | - | 0 W/m² | - |
| 1777518182 | 1.11° C | 75% | 1025.6 hPa | 0 mm | - | 0 W/m² | - |
* Rain latest hour (hover to see other rain measurements)
** Current wind speed in m/s (hover to see current wind gust speed)